createdAt,value
2023-03-18T00:00:24.258Z,35.11
2023-03-18T00:02:50.573Z,34.96
2023-03-18T00:05:17.295Z,34.99
2023-03-18T00:07:43.622Z,35.12
2023-03-18T00:10:10.653Z,35.09
2023-03-18T00:12:39.005Z,35.30
2023-03-18T00:15:09.512Z,35.41
2023-03-18T00:17:37.626Z,35.45
2023-03-18T00:20:05.875Z,35.47
2023-03-18T00:22:36.289Z,35.29
2023-03-18T00:25:03.664Z,35.30
2023-03-18T00:27:30.205Z,35.16
2023-03-18T00:29:57.752Z,35.37
2023-03-18T00:32:25.889Z,35.34
2023-03-18T00:34:53.056Z,35.38
2023-03-18T00:37:30.224Z,35.44
2023-03-18T00:40:05.036Z,35.66
2023-03-18T00:42:37.228Z,35.97
2023-03-18T00:45:04.406Z,35.98
2023-03-18T00:47:30.741Z,35.87
2023-03-18T00:49:57.113Z,35.60
2023-03-18T00:52:23.627Z,35.43
2023-03-18T00:54:50.371Z,36.00
2023-03-18T00:57:17.414Z,35.89
2023-03-18T00:59:44.228Z,36.11
2023-03-18T01:02:10.764Z,36.05
2023-03-18T01:04:37.293Z,36.12
2023-03-18T01:07:03.589Z,36.03
2023-03-18T01:09:29.830Z,35.89
2023-03-18T01:11:56.102Z,36.16
2023-03-18T01:14:22.336Z,35.99
2023-03-18T01:16:49.240Z,35.95
2023-03-18T01:19:15.937Z,36.12
2023-03-18T01:21:42.430Z,36.15
2023-03-18T01:24:10.200Z,36.30
2023-03-18T01:26:36.812Z,36.06
2023-03-18T01:29:03.778Z,36.25
2023-03-18T01:31:30.155Z,36.09
2023-03-18T01:33:56.692Z,36.29
2023-03-18T01:36:23.047Z,36.30
2023-03-18T01:38:49.288Z,36.39
2023-03-18T01:41:17.117Z,36.18
2023-03-18T01:43:44.198Z,36.41
2023-03-18T01:46:30.326Z,36.14
2023-03-18T01:48:56.950Z,36.27
2023-03-18T01:51:24.895Z,36.25
2023-03-18T01:53:52.214Z,36.03
2023-03-18T01:56:18.695Z,36.09
2023-03-18T01:58:46.534Z,36.09
2023-03-18T02:01:17.979Z,35.94
2023-03-18T02:06:12.285Z,35.99
2023-03-18T02:08:39.710Z,36.37
2023-03-18T02:11:06.824Z,36.43
2023-03-18T02:13:35.790Z,36.66
2023-03-18T02:16:05.074Z,36.70
2023-03-18T02:18:35.142Z,36.50
2023-03-18T02:21:20.858Z,36.83
2023-03-18T02:23:49.958Z,36.83
2023-03-18T02:26:37.241Z,36.83
2023-03-18T02:29:05.803Z,37.11
2023-03-18T02:31:33.289Z,36.68
2023-03-18T02:34:00.106Z,36.99
2023-03-18T02:36:30.180Z,36.99
2023-03-18T02:38:57.351Z,37.04
2023-03-18T02:41:25.354Z,36.83
2023-03-18T02:43:52.257Z,37.21
2023-03-18T02:46:40.842Z,36.87
2023-03-18T02:49:07.908Z,36.94
2023-03-18T02:51:35.484Z,36.79
2023-03-18T02:54:04.520Z,37.07
2023-03-18T02:56:30.859Z,36.82
2023-03-18T02:58:58.010Z,37.07
2023-03-18T03:01:24.692Z,37.09
2023-03-18T03:03:51.627Z,37.05
2023-03-18T03:06:18.022Z,36.92
2023-03-18T03:08:44.734Z,37.04
2023-03-18T03:11:11.496Z,37.34
2023-03-18T03:13:39.342Z,37.32
2023-03-18T03:16:05.867Z,37.49
2023-03-18T03:18:32.125Z,37.25
2023-03-18T03:20:58.766Z,37.39
2023-03-18T03:23:25.273Z,37.40
2023-03-18T03:25:51.514Z,37.41
2023-03-18T03:28:17.773Z,37.42
2023-03-18T03:30:44.482Z,37.54
2023-03-18T03:33:10.961Z,37.51
2023-03-18T03:35:38.640Z,37.37
2023-03-18T03:38:05.070Z,37.30
2023-03-18T03:40:31.910Z,37.38
2023-03-18T03:42:58.906Z,37.66
2023-03-18T03:45:25.365Z,37.67
2023-03-18T03:47:52.395Z,37.58
2023-03-18T03:50:19.045Z,37.55
2023-03-18T03:52:45.576Z,37.68
2023-03-18T03:55:14.315Z,37.83
2023-03-18T03:57:40.633Z,37.78
2023-03-18T04:00:10.157Z,37.77
2023-03-18T04:02:37.449Z,37.39
2023-03-18T04:05:04.130Z,37.59
2023-03-18T04:07:30.635Z,37.82
2023-03-18T04:09:57.344Z,37.52
2023-03-18T04:12:23.672Z,37.49
2023-03-18T04:14:51.826Z,37.80
2023-03-18T04:17:18.221Z,37.77
2023-03-18T04:19:44.461Z,37.57
2023-03-18T04:22:10.788Z,37.99
2023-03-18T04:24:37.394Z,37.82
2023-03-18T04:27:03.899Z,37.61
2023-03-18T04:29:30.805Z,38.05
2023-03-18T04:31:57.056Z,37.81
2023-03-18T04:34:24.079Z,37.89
2023-03-18T04:36:50.383Z,37.84
2023-03-18T04:39:16.740Z,37.85
2023-03-18T04:41:43.094Z,37.60
2023-03-18T04:44:09.377Z,37.39
2023-03-18T04:46:36.212Z,37.84
2023-03-18T04:49:02.848Z,38.17
2023-03-18T04:51:29.339Z,37.95
2023-03-18T04:53:55.615Z,38.27
2023-03-18T04:56:22.143Z,38.25
2023-03-18T04:58:48.527Z,38.39
2023-03-18T05:01:15.033Z,38.31
2023-03-18T05:03:41.770Z,38.24
2023-03-18T05:06:09.524Z,38.55
2023-03-18T05:08:35.856Z,38.40
2023-03-18T05:11:02.176Z,38.07
2023-03-18T05:13:28.674Z,38.25
2023-03-18T05:15:55.134Z,38.34
2023-03-18T05:18:21.398Z,38.45
2023-03-18T05:20:48.154Z,38.24
2023-03-18T05:23:14.586Z,38.60
2023-03-18T05:25:41.065Z,38.61
2023-03-18T05:28:10.143Z,38.43
2023-03-18T05:30:39.788Z,38.48
2023-03-18T05:33:06.160Z,38.18
2023-03-18T05:35:32.645Z,38.56
2023-03-18T05:37:59.392Z,38.74
2023-03-18T05:40:25.682Z,38.83
2023-03-18T05:42:56.238Z,38.91
2023-03-18T05:45:23.076Z,38.52
2023-03-18T05:47:49.361Z,39.02
2023-03-18T05:50:18.823Z,38.90
2023-03-18T05:52:45.221Z,38.93
2023-03-18T05:55:13.707Z,39.13
2023-03-18T05:57:40.546Z,38.61
2023-03-18T06:00:07.223Z,39.02
2023-03-18T06:02:33.519Z,38.51
2023-03-18T06:04:59.954Z,38.80
2023-03-18T06:07:27.442Z,38.94
2023-03-18T06:09:53.682Z,39.03
2023-03-18T06:12:23.008Z,38.94
2023-03-18T06:14:49.338Z,38.75
2023-03-18T06:17:16.429Z,39.22
2023-03-18T06:19:42.716Z,38.98
2023-03-18T06:22:09.904Z,38.56
2023-03-18T06:24:36.282Z,38.99
2023-03-18T06:27:02.599Z,39.09
2023-03-18T06:29:29.755Z,38.83
2023-03-18T06:31:56.022Z,38.80
2023-03-18T06:34:22.507Z,38.59
2023-03-18T06:36:49.814Z,38.83
2023-03-18T06:39:16.112Z,39.04
2023-03-18T06:41:42.394Z,38.73
2023-03-18T06:44:08.648Z,38.42
2023-03-18T06:46:35.845Z,38.92
2023-03-18T06:49:02.481Z,38.57
2023-03-18T06:51:28.760Z,38.66
2023-03-18T06:53:55.252Z,38.93
2023-03-18T06:56:22.039Z,38.72
2023-03-18T06:58:48.376Z,39.23
2023-03-18T07:01:15.351Z,39.55
2023-03-18T07:03:41.902Z,39.24
2023-03-18T07:06:10.399Z,39.15
2023-03-18T07:08:37.058Z,39.27
2023-03-18T07:11:03.891Z,39.38
2023-03-18T07:13:30.215Z,39.32
2023-03-18T07:15:57.221Z,39.35
2023-03-18T07:18:23.794Z,39.01
2023-03-18T07:20:50.275Z,39.38
2023-03-18T07:23:16.943Z,38.93
2023-03-18T07:25:44.769Z,39.25
2023-03-18T07:28:11.133Z,39.31
2023-03-18T07:30:38.417Z,39.36
2023-03-18T07:33:05.067Z,39.22
2023-03-18T07:35:31.962Z,39.29
2023-03-18T07:37:58.753Z,39.32
2023-03-18T07:40:25.262Z,39.76
2023-03-18T07:42:51.663Z,39.62
2023-03-18T07:45:18.125Z,39.49
2023-03-18T07:47:47.039Z,39.18
2023-03-18T07:50:13.825Z,39.52
2023-03-18T07:52:40.506Z,39.60
2023-03-18T07:55:09.021Z,39.47
2023-03-18T07:57:35.551Z,39.76
2023-03-18T08:00:02.467Z,40.02
2023-03-18T08:02:28.761Z,39.83
2023-03-18T08:04:55.448Z,39.59
2023-03-18T08:07:23.162Z,39.63
2023-03-18T08:09:50.569Z,39.75
2023-03-18T08:12:19.062Z,39.64
2023-03-18T08:14:45.538Z,39.76
2023-03-18T08:17:12.149Z,39.59
2023-03-18T08:19:38.641Z,39.67
2023-03-18T08:22:04.934Z,40.19
2023-03-18T08:24:31.410Z,40.31
2023-03-18T08:26:57.777Z,40.32
2023-03-18T08:29:24.016Z,40.42
2023-03-18T08:31:51.163Z,40.31
2023-03-18T08:34:17.457Z,40.22
2023-03-18T08:36:43.705Z,40.15
2023-03-18T08:39:11.120Z,40.19
2023-03-18T08:41:37.567Z,40.27
2023-03-18T08:44:06.685Z,40.32
2023-03-18T08:46:32.988Z,39.71
2023-03-18T08:48:59.894Z,39.95
2023-03-18T08:51:26.786Z,39.90
2023-03-18T08:53:53.141Z,39.78
2023-03-18T08:56:19.388Z,39.71
2023-03-18T08:58:45.936Z,39.39
2023-03-18T09:01:12.566Z,39.79
2023-03-18T09:03:39.321Z,39.62
2023-03-18T09:06:05.815Z,39.57
2023-03-18T09:08:32.732Z,39.46
2023-03-18T09:10:59.899Z,39.38
2023-03-18T09:13:26.607Z,39.50
2023-03-18T09:15:53.106Z,39.66
2023-03-18T09:18:19.486Z,39.63
2023-03-18T09:20:46.826Z,39.64
2023-03-18T09:23:13.909Z,39.37
2023-03-18T09:25:43.040Z,39.61
2023-03-18T09:28:09.877Z,39.75
2023-03-18T09:30:38.032Z,39.42
2023-03-18T09:33:06.903Z,39.39
2023-03-18T09:35:33.838Z,39.24
2023-03-18T09:38:00.511Z,39.47
2023-03-18T11:02:02.520Z,47.95
2023-03-18T11:04:31.970Z,46.66
2023-03-18T11:07:03.222Z,46.33
2023-03-18T11:09:36.507Z,44.90
2023-03-18T11:12:25.748Z,44.09
2023-03-18T11:14:53.722Z,43.49
2023-03-18T11:17:22.445Z,42.89
2023-03-18T11:20:00.706Z,42.81
2023-03-18T11:22:28.278Z,41.92
2023-03-18T11:25:16.974Z,41.38
2023-03-18T11:27:48.937Z,41.04
2023-03-18T11:30:33.089Z,40.80
2023-03-18T11:33:13.108Z,40.39
2023-03-18T11:35:52.059Z,40.19
2023-03-18T11:38:28.675Z,39.66
2023-03-18T11:41:08.585Z,39.09
2023-03-18T11:43:37.950Z,39.31
2023-03-18T11:46:07.201Z,38.92
2023-03-18T11:48:39.934Z,38.77
2023-03-18T11:51:31.836Z,38.49
2023-03-18T11:53:58.151Z,38.92
2023-03-18T11:56:41.468Z,38.36
2023-03-18T11:59:18.135Z,38.05
2023-03-18T12:02:07.734Z,38.55
2023-03-18T12:05:21.394Z,38.19
2023-03-18T12:08:03.275Z,38.33
2023-03-18T12:10:59.213Z,38.14
2023-03-18T12:14:07.975Z,38.25
2023-03-18T12:17:07.945Z,37.70
2023-03-18T12:19:53.027Z,37.77
2023-03-18T12:22:28.482Z,37.96
2023-03-18T12:25:07.339Z,37.85
2023-03-18T12:28:01.075Z,37.91
2023-03-18T12:30:40.861Z,37.83
2023-03-18T12:33:28.268Z,37.42
2023-03-18T12:36:00.848Z,37.50
2023-03-18T12:38:45.179Z,37.34
2023-03-18T12:41:37.216Z,36.80
2023-03-18T12:44:23.334Z,37.02
2023-03-18T12:46:58.726Z,36.61
2023-03-18T12:49:43.304Z,36.52
2023-03-18T12:52:21.950Z,36.51
2023-03-18T12:55:11.646Z,36.85
2023-03-18T12:57:50.352Z,36.10
2023-03-18T13:00:39.978Z,36.41
2023-03-18T13:03:31.557Z,36.11
2023-03-18T13:06:05.475Z,36.34
2023-03-18T13:08:44.018Z,36.61
2023-03-18T13:11:44.800Z,36.30
2023-03-18T13:14:17.664Z,36.01
2023-03-18T13:16:44.392Z,36.18
2023-03-18T13:19:12.209Z,35.98
2023-03-18T13:21:48.489Z,35.67
2023-03-18T13:24:45.370Z,35.49
2023-03-18T13:27:26.700Z,35.88
2023-03-18T13:30:06.206Z,35.47
2023-03-18T13:32:38.809Z,35.61
2023-03-18T13:35:14.619Z,35.07
2023-03-18T13:38:06.462Z,35.45
2023-03-18T13:40:54.574Z,35.27
2023-03-18T13:43:24.150Z,34.57
2023-03-18T13:45:53.656Z,34.62
2023-03-18T13:48:33.647Z,34.29
2023-03-18T13:51:18.524Z,34.33
2023-03-18T13:53:47.509Z,34.32
2023-03-18T13:56:26.340Z,34.14
2023-03-18T13:58:54.318Z,34.16
2023-03-18T14:01:24.350Z,33.90
2023-03-18T14:03:51.119Z,34.22
2023-03-18T14:06:36.582Z,33.84
2023-03-18T14:09:22.893Z,33.90
2023-03-18T14:11:52.688Z,33.77
2023-03-18T14:14:53.682Z,33.93
2023-03-18T14:17:33.370Z,33.62
2023-03-18T14:20:38.747Z,33.56
2023-03-18T14:23:39.001Z,33.13
2023-03-18T14:26:08.588Z,32.98
2023-03-18T14:28:49.198Z,33.39
2023-03-18T14:31:39.049Z,33.62
2023-03-18T14:34:18.053Z,33.14
2023-03-18T14:36:54.207Z,33.06
2023-03-18T14:39:38.090Z,32.65
2023-03-18T14:42:24.952Z,32.47
2023-03-18T14:44:54.867Z,32.38
2023-03-18T14:47:38.163Z,32.58
2023-03-18T14:50:23.748Z,32.84
2023-03-18T14:53:11.714Z,32.88
2023-03-18T14:55:39.183Z,33.27
2023-03-18T14:58:05.855Z,32.82
2023-03-18T15:00:36.750Z,32.27
2023-03-18T15:03:11.890Z,32.49
2023-03-18T15:05:41.724Z,32.54
2023-03-18T15:08:22.629Z,32.14
2023-03-18T15:10:51.594Z,32.32
2023-03-18T15:13:20.935Z,32.23
2023-03-18T15:15:47.836Z,32.51
2023-03-18T15:18:21.335Z,32.55
2023-03-18T15:21:10.307Z,32.43
2023-03-18T15:23:40.602Z,32.51
2023-03-18T15:26:13.405Z,32.60
2023-03-18T15:28:39.772Z,32.64
2023-03-18T15:31:06.306Z,32.43
2023-03-18T15:33:38.320Z,32.43
2023-03-18T15:36:16.418Z,32.62
2023-03-18T15:38:51.201Z,32.55
2023-03-18T15:41:21.530Z,32.50
2023-03-18T15:43:53.847Z,32.74
2023-03-18T15:46:31.061Z,32.75
2023-03-18T15:49:02.441Z,32.83
2023-03-18T15:51:38.537Z,32.83
2023-03-18T15:54:15.045Z,32.95
2023-03-18T15:56:49.569Z,33.18
2023-03-18T15:59:29.617Z,32.96
2023-03-18T16:01:57.808Z,32.96
2023-03-18T16:04:25.408Z,33.85
2023-03-18T16:06:55.037Z,34.18
2023-03-18T16:09:24.032Z,34.85
2023-03-18T16:12:19.788Z,35.82
2023-03-18T16:14:49.125Z,35.88
2023-03-18T16:17:19.654Z,36.39
2023-03-18T16:19:54.406Z,36.53
2023-03-18T16:22:21.666Z,36.88
2023-03-18T16:24:48.248Z,37.30
2023-03-18T16:27:38.258Z,37.49
2023-03-18T16:30:07.112Z,36.86
2023-03-18T16:32:33.875Z,36.70
2023-03-18T16:35:00.763Z,36.90
2023-03-18T16:37:27.954Z,36.76
2023-03-18T16:39:56.039Z,37.07
2023-03-18T16:42:24.284Z,37.45
2023-03-18T16:44:51.650Z,37.32
2023-03-18T16:47:27.610Z,37.57
2023-03-18T16:49:55.371Z,37.49
2023-03-18T16:52:21.898Z,37.56
2023-03-18T16:54:48.639Z,37.68
2023-03-18T16:57:21.689Z,38.16
2023-03-18T16:59:50.959Z,38.18
2023-03-18T17:02:27.404Z,38.71
2023-03-18T17:04:54.014Z,38.40
2023-03-18T17:07:20.614Z,38.20
2023-03-18T17:09:47.175Z,38.24
2023-03-18T17:12:15.953Z,38.36
2023-03-18T17:14:51.764Z,38.51
2023-03-18T17:17:43.732Z,38.75
2023-03-18T17:20:19.909Z,38.61
2023-03-18T17:22:47.289Z,38.17
2023-03-18T17:25:14.412Z,38.16
2023-03-18T17:27:55.275Z,38.62
2023-03-18T17:30:33.618Z,38.45
2023-03-18T17:33:00.561Z,38.42
2023-03-18T17:35:27.308Z,38.06
2023-03-18T17:37:54.469Z,38.34
2023-03-18T17:40:22.557Z,38.41
2023-03-18T17:42:52.076Z,38.58
2023-03-18T17:45:33.531Z,38.97
2023-03-18T17:48:18.162Z,39.17
2023-03-18T17:50:44.861Z,38.81
2023-03-18T17:53:24.147Z,39.29
2023-03-18T17:55:50.830Z,38.99
2023-03-18T17:58:18.956Z,39.19
2023-03-18T18:00:46.906Z,39.16
2023-03-18T18:03:26.902Z,39.93
2023-03-18T18:05:55.243Z,39.26
2023-03-18T18:08:24.641Z,39.36
2023-03-18T18:10:54.162Z,39.82
2023-03-18T18:13:22.778Z,39.62
2023-03-18T18:15:50.581Z,39.52
2023-03-18T18:18:24.844Z,39.67
2023-03-18T18:20:57.255Z,40.19
2023-03-18T18:23:38.304Z,40.47
2023-03-18T18:26:08.130Z,40.20
2023-03-18T18:28:37.116Z,40.19
2023-03-18T18:31:05.743Z,40.45
2023-03-18T18:33:33.577Z,40.48
2023-03-18T18:36:00.802Z,40.51
2023-03-18T18:38:28.311Z,40.74
2023-03-18T18:40:56.488Z,40.79
2023-03-18T18:43:24.999Z,40.76
2023-03-18T18:45:52.638Z,40.89
2023-03-18T18:48:38.321Z,41.02
2023-03-18T18:51:05.180Z,40.72
2023-03-18T18:53:36.518Z,41.27
2023-03-18T18:56:23.586Z,41.57
2023-03-18T18:58:52.069Z,40.90
2023-03-18T19:01:20.066Z,41.07
2023-03-18T19:03:47.181Z,41.12
2023-03-18T19:06:40.673Z,41.64
2023-03-18T19:09:18.110Z,41.61
2023-03-18T19:11:46.188Z,41.05
2023-03-18T19:14:18.344Z,41.61
2023-03-18T19:16:45.726Z,41.18
2023-03-18T19:19:21.112Z,42.04
2023-03-18T19:21:49.040Z,41.33
2023-03-18T19:24:37.837Z,42.12
2023-03-18T19:27:10.062Z,41.79
2023-03-18T19:29:37.315Z,41.58
2023-03-18T19:32:04.379Z,41.79
2023-03-18T19:34:33.754Z,41.59
2023-03-18T19:37:03.012Z,41.76
2023-03-18T19:39:29.770Z,41.67
2023-03-18T19:41:56.342Z,41.93
2023-03-18T19:44:25.082Z,42.03
2023-03-18T19:46:53.987Z,42.28
2023-03-18T19:49:30.453Z,42.87
2023-03-18T19:51:57.383Z,42.24
2023-03-18T19:54:34.018Z,42.72
2023-03-18T19:57:06.767Z,42.96
2023-03-18T19:59:39.323Z,42.53
2023-03-18T20:02:28.951Z,43.51
2023-03-18T20:04:57.911Z,42.56
2023-03-18T20:07:27.242Z,42.63
2023-03-18T20:09:56.834Z,42.75
2023-03-18T20:12:36.580Z,43.58
2023-03-18T20:15:04.601Z,42.85
2023-03-18T20:17:47.745Z,43.55
2023-03-18T20:20:17.348Z,43.37
2023-03-18T20:22:48.313Z,43.55
2023-03-18T20:25:32.705Z,43.69
2023-03-18T20:28:00.160Z,43.06
2023-03-18T20:30:30.033Z,43.52
2023-03-18T20:32:58.371Z,43.63
2023-03-18T20:35:28.013Z,43.73
2023-03-18T20:37:56.064Z,43.73
2023-03-18T20:40:25.592Z,44.16
2023-03-18T20:42:53.130Z,44.14
2023-03-18T20:45:22.214Z,44.31
2023-03-18T20:47:49.215Z,44.11
2023-03-18T20:50:21.402Z,44.46
2023-03-18T20:52:49.127Z,44.18
2023-03-18T20:55:27.813Z,44.72
2023-03-18T20:57:54.362Z,43.97
2023-03-18T21:00:24.178Z,44.37
2023-03-18T21:02:54.504Z,44.59
2023-03-18T21:05:21.729Z,44.47
2023-03-18T21:07:48.706Z,44.66
2023-03-18T21:10:23.889Z,45.38
2023-03-18T21:12:51.734Z,44.56
2023-03-18T21:15:22.311Z,44.87
2023-03-18T21:17:50.516Z,44.55
2023-03-18T21:20:25.604Z,45.35
2023-03-18T21:22:52.977Z,44.39
2023-03-18T21:25:22.739Z,44.97
2023-03-18T21:27:50.088Z,44.73
2023-03-18T21:30:18.728Z,44.56
2023-03-18T21:32:46.179Z,44.94
2023-03-18T21:35:20.971Z,44.52
2023-03-18T21:37:47.968Z,44.71
2023-03-18T21:40:16.060Z,44.93
2023-03-18T21:42:43.941Z,44.67
2023-03-18T21:45:13.583Z,44.72
2023-03-18T21:47:40.474Z,44.82
2023-03-18T21:50:07.284Z,44.85
2023-03-18T21:52:36.934Z,44.66
2023-03-18T21:55:06.141Z,45.08
2023-03-18T21:57:32.849Z,45.04
2023-03-18T21:59:59.487Z,44.97
2023-03-18T22:02:27.598Z,45.11
2023-03-18T22:04:57.902Z,44.83
2023-03-18T22:07:26.191Z,45.48
2023-03-18T22:09:52.981Z,45.22
2023-03-18T22:12:24.003Z,45.26
2023-03-18T22:14:50.936Z,44.94
2023-03-18T22:17:29.252Z,46.09
2023-03-18T22:19:57.028Z,45.40
2023-03-18T22:22:26.185Z,45.25
2023-03-18T22:24:53.351Z,45.10
2023-03-18T22:27:23.323Z,45.47
2023-03-18T22:29:51.681Z,45.51
2023-03-18T22:32:44.727Z,45.98
2023-03-18T22:35:16.777Z,45.65
2023-03-18T22:37:43.155Z,45.65
2023-03-18T22:40:21.765Z,46.18
2023-03-18T22:42:50.438Z,45.08
2023-03-18T22:45:28.936Z,45.53
2023-03-18T22:47:56.877Z,45.69
2023-03-18T22:50:26.175Z,44.96
2023-03-18T22:53:05.942Z,45.59
2023-03-18T22:55:36.647Z,45.38
2023-03-18T22:58:03.439Z,45.07
2023-03-18T23:00:39.132Z,45.96
2023-03-18T23:03:28.873Z,45.78
2023-03-18T23:05:57.936Z,45.30
2023-03-18T23:08:27.544Z,45.22
2023-03-18T23:10:57.027Z,45.23
2023-03-18T23:13:28.830Z,45.81
2023-03-18T23:15:56.246Z,45.23
2023-03-18T23:18:23.597Z,45.40
2023-03-18T23:20:51.688Z,45.47
2023-03-18T23:23:18.498Z,45.19
2023-03-18T23:25:45.838Z,45.60
2023-03-18T23:28:12.474Z,45.42
2023-03-18T23:30:42.085Z,45.60
2023-03-18T23:33:09.508Z,45.31
2023-03-18T23:35:37.428Z,45.59
2023-03-18T23:38:07.731Z,45.34
2023-03-18T23:40:34.717Z,45.20
2023-03-18T23:43:01.683Z,45.51
2023-03-18T23:45:28.499Z,45.52
2023-03-18T23:47:56.000Z,45.71
2023-03-18T23:50:22.679Z,45.55
2023-03-18T23:52:49.075Z,45.45
2023-03-18T23:55:33.141Z,45.52
2023-03-18T23:58:03.388Z,45.08
